Time;durP1;ratioP1;P1;durP2;ratioP2;P2;SDS_P1;SDS_P2;PMS_P1;PMS_P2;Temp;Humidity;BMP_temperature;BMP_pressure;BME280_temperature;BME280_humidity;BME280_pressure;Samples;Min_cycle;Max_cycle;Signal;HPM_P1;HPM_P2
2022/06/07 00:01:00;;;;;;;4.00;2.75;;;;;;;16.05;100.00;99985.14;1672048;86;21025;-79
2022/06/07 00:03:27;;;;;;;4.03;2.75;;;;;;;16.04;100.00;99988.07;1672155;86;21036;-79
2022/06/07 00:05:55;;;;;;;3.30;2.90;;;;;;;16.01;100.00;99982.52;1672198;86;21088;-79
2022/06/07 00:08:22;;;;;;;4.97;3.00;;;;;;;15.99;100.00;99972.86;1672216;86;21476;-79
2022/06/07 00:10:49;;;;;;;5.85;3.00;;;;;;;15.95;100.00;99973.80;1672168;86;21029;-78
2022/06/07 00:13:18;;;;;;;2.90;2.60;;;;;;;15.92;100.00;99975.06;1672251;84;21081;-78
2022/06/07 00:15:48;;;;;;;5.30;2.92;;;;;;;15.90;100.00;99978.53;1672212;86;21077;-78
2022/06/07 00:18:15;;;;;;;4.12;2.77;;;;;;;15.89;100.00;99975.47;1672349;86;21060;-77
2022/06/07 00:20:43;;;;;;;6.58;3.10;;;;;;;15.90;100.00;99968.13;1671995;86;21048;-76
2022/06/07 00:23:13;;;;;;;4.37;2.90;;;;;;;15.87;100.00;99968.03;1671931;86;21081;-76
2022/06/07 00:25:42;;;;;;;5.80;3.70;;;;;;;15.84;100.00;99960.26;1672115;86;21045;-76
2022/06/07 00:28:09;;;;;;;6.53;3.62;;;;;;;15.83;100.00;99972.23;1672200;86;21072;-76
2022/06/07 00:30:36;;;;;;;5.30;3.37;;;;;;;15.80;100.00;99964.98;1671990;86;21068;-77
2022/06/07 00:33:04;;;;;;;6.55;4.10;;;;;;;15.78;100.00;99968.45;1649609;86;21052;-76
2022/06/07 00:35:31;;;;;;;8.55;4.60;;;;;;;15.74;100.00;99965.23;1672176;86;21072;-76
2022/06/07 00:37:58;;;;;;;5.25;3.80;;;;;;;15.73;100.00;99967.12;1672457;86;21044;-76
2022/06/07 00:40:25;;;;;;;4.30;3.25;;;;;;;15.73;100.00;99969.86;1672249;85;21025;-76
2022/06/07 00:42:53;;;;;;;7.22;3.30;;;;;;;15.71;100.00;99971.13;1672117;84;21048;-77
2022/06/07 00:45:22;;;;;;;9.28;3.75;;;;;;;15.69;100.00;99975.94;1672100;86;21040;-76
2022/06/07 00:47:50;;;;;;;3.98;3.22;;;;;;;15.66;100.00;99970.36;1649125;86;21104;-75
2022/06/07 00:50:23;;;;;;;4.92;3.35;;;;;;;15.64;100.00;99967.01;1679484;84;21081;-77
2022/06/07 00:52:50;;;;;;;5.40;3.20;;;;;;;15.64;100.00;99967.55;1720858;83;21062;-76
2022/06/07 00:55:19;;;;;;;5.47;3.27;;;;;;;15.61;100.00;99961.96;1724412;83;21056;-77
2022/06/07 00:57:52;;;;;;;6.83;3.55;;;;;;;15.58;100.00;99965.09;1724091;83;21040;-76
2022/06/07 01:00:23;;;;;;;7.60;2.98;;;;;;;15.55;100.00;99962.80;1723833;83;21005;-77
2022/06/07 01:02:51;;;;;;;6.53;3.50;;;;;;;15.50;100.00;99956.59;1724655;83;20974;-76
2022/06/07 01:05:18;;;;;;;7.87;3.30;;;;;;;15.50;100.00;99960.68;1724424;83;21049;-76
2022/06/07 01:10:46;;;;;;;8.80;3.35;;;;;;;15.43;100.00;99956.27;1724407;83;21556;-76
2022/06/07 01:13:28;;;;;;;6.28;3.30;;;;;;;15.38;100.00;99956.87;1628012;87;21054;-76
2022/06/07 01:15:59;;;;;;;4.47;3.37;;;;;;;15.35;100.00;99958.63;1645751;87;21038;-76
2022/06/07 01:18:31;;;;;;;6.87;3.83;;;;;;;15.32;100.00;99957.70;1645467;87;21564;-77
2022/06/07 01:21:24;;;;;;;7.12;4.00;;;;;;;15.30;100.00;99970.69;1645475;87;21102;-76
2022/06/07 01:23:52;;;;;;;8.40;3.90;;;;;;;15.27;100.00;99969.20;1648588;85;21065;-77
2022/06/07 01:26:21;;;;;;;8.25;3.83;;;;;;;15.25;100.00;99973.18;1645546;87;21065;-76
2022/06/07 01:28:48;;;;;;;10.10;3.92;;;;;;;15.20;100.00;99968.33;1645530;87;21043;-76
2022/06/07 01:31:16;;;;;;;9.40;4.10;;;;;;;15.17;100.00;99969.59;1645272;87;21086;-76
2022/06/07 01:33:44;;;;;;;6.95;3.95;;;;;;;15.16;100.00;99968.43;1645537;87;21054;-76
2022/06/07 01:36:14;;;;;;;8.28;4.20;;;;;;;15.15;100.00;99966.73;1645514;87;21514;-77
2022/06/07 01:38:44;;;;;;;15.88;5.92;;;;;;;15.12;100.00;99963.91;1648367;86;21014;-76
2022/06/07 01:43:58;;;;;;;18.25;8.05;;;;;;;15.10;100.00;99963.78;1659877;86;21659;-76
2022/06/07 01:46:27;;;;;;;17.07;7.87;;;;;;;15.08;100.00;99968.59;1660149;86;21070;-76
2022/06/07 01:48:55;;;;;;;24.18;8.23;;;;;;;15.08;100.00;99969.95;1637859;86;21062;-76
2022/06/07 01:51:22;;;;;;;25.35;9.80;;;;;;;15.06;100.00;99966.06;1659996;86;21050;-76
2022/06/07 01:53:49;;;;;;;34.20;18.62;;;;;;;15.04;100.00;99967.33;1660008;86;21078;-76
2022/06/07 01:56:17;;;;;;;45.08;25.08;;;;;;;15.00;100.00;99958.72;1659945;86;21022;-76
2022/06/07 01:58:46;;;;;;;41.30;22.60;;;;;;;14.97;100.00;99964.56;1659905;85;21228;-75
2022/06/07 02:01:14;;;;;;;36.28;19.32;;;;;;;14.93;100.00;99961.41;1659932;86;21533;-76
2022/06/07 02:03:42;;;;;;;26.65;14.43;;;;;;;14.92;100.00;99965.68;1659917;86;21015;-76
2022/06/07 02:06:12;;;;;;;20.15;9.18;;;;;;;14.92;100.00;99972.48;1659994;86;21085;-77
2022/06/07 02:08:41;;;;;;;25.75;12.15;;;;;;;14.91;100.00;99959.41;1669972;83;21047;-76
2022/06/07 02:11:13;;;;;;;33.00;17.10;;;;;;;14.93;100.00;99964.13;1725313;83;21092;-75
2022/06/07 02:13:42;;;;;;;32.77;17.20;;;;;;;14.93;100.00;99958.67;1725322;83;21085;-75
2022/06/07 02:16:09;;;;;;;28.80;13.43;;;;;;;14.94;100.00;99964.95;1725258;83;21037;-76
2022/06/07 02:18:36;;;;;;;23.85;10.88;;;;;;;14.95;100.00;99965.29;1724854;82;21100;-75
2022/06/07 02:21:06;;;;;;;22.05;9.33;;;;;;;14.96;100.00;99972.39;1722503;83;21041;-76
2022/06/07 02:23:34;;;;;;;21.07;9.58;;;;;;;14.96;100.00;99973.26;1724993;83;21087;-75
2022/06/07 02:26:28;;;;;;;18.20;8.80;;;;;;;14.97;100.00;99965.92;1725239;83;21073;-75
2022/06/07 02:29:12;;;;;;;19.35;8.55;;;;;;;14.98;100.00;99973.89;1759731;81;21017;-76
2022/06/07 02:31:44;;;;;;;27.65;15.30;;;;;;;15.03;100.00;99973.27;1723011;83;21030;-75
2022/06/07 02:34:11;;;;;;;70.35;40.73;;;;;;;15.04;100.00;99970.87;1759582;81;21013;-76
2022/06/07 02:36:40;;;;;;;99.80;53.52;;;;;;;15.05;100.00;99976.66;1722981;83;21026;-76
2022/06/07 02:39:07;;;;;;;96.87;50.58;;;;;;;15.07;100.00;99972.34;1753430;81;21026;-76
2022/06/07 02:41:34;;;;;;;115.55;62.90;;;;;;;15.09;100.00;99972.48;1743769;82;21014;-76
2022/06/07 02:44:02;;;;;;;156.35;83.20;;;;;;;15.10;100.00;99974.17;1743555;82;21027;-77
2022/06/07 02:46:29;;;;;;;102.00;56.73;;;;;;;15.12;100.00;99971.22;1745756;81;21029;-76
2022/06/07 02:48:56;;;;;;;97.67;53.15;;;;;;;15.13;100.00;99971.55;1723605;83;21091;-76
2022/06/07 02:51:23;;;;;;;93.20;50.40;;;;;;;15.15;100.00;99965.38;1759667;81;21022;-76
2022/06/07 02:53:51;;;;;;;106.78;57.23;;;;;;;15.15;100.00;99971.65;1723323;83;21018;-75
2022/06/07 02:56:18;;;;;;;99.00;53.85;;;;;;;15.15;100.00;99973.54;1759725;81;21009;-76
2022/06/07 02:58:46;;;;;;;107.07;54.42;;;;;;;15.16;100.00;99980.16;1723345;83;21085;-76
2022/06/07 03:01:14;;;;;;;100.75;52.35;;;;;;;15.18;100.00;99982.15;1759742;80;20990;-77
2022/06/07 03:03:42;;;;;;;42.78;22.67;;;;;;;15.19;100.00;99974.31;1723387;83;21075;-76
2022/06/07 03:06:11;;;;;;;30.85;15.95;;;;;;;15.23;100.00;99976.60;1759577;81;21595;-76
2022/06/07 03:08:38;;;;;;;27.17;12.23;;;;;;;15.30;100.00;99970.69;1723381;83;20995;-76
2022/06/07 03:11:07;;;;;;;31.17;16.05;;;;;;;15.36;100.00;99974.78;1759722;81;21002;-76
2022/06/07 03:13:35;;;;;;;34.03;18.82;;;;;;;15.42;100.00;99976.38;1759783;81;21048;-76
2022/06/07 03:16:03;;;;;;;44.55;23.90;;;;;;;15.43;100.00;99973.44;1722930;83;21556;-77
2022/06/07 03:18:32;;;;;;;41.60;20.45;;;;;;;15.46;100.00;99970.32;1759735;81;21029;-76
2022/06/07 03:20:59;;;;;;;95.67;48.28;;;;;;;15.47;100.00;99963.80;1723421;83;21069;-76
2022/06/07 03:23:26;;;;;;;67.08;35.95;;;;;;;15.54;100.00;99967.92;1759234;81;21052;-76
2022/06/07 03:26:05;;;;;;;81.75;38.85;;;;;;;15.59;100.00;99973.59;1725003;83;21062;-77
2022/06/07 03:28:33;;;;;;;96.87;47.35;;;;;;;15.66;100.00;99967.64;1688648;85;21077;-77
2022/06/07 03:31:12;;;;;;;163.20;78.20;;;;;;;15.77;100.00;99968.95;1690111;85;21093;-77
2022/06/07 03:33:42;;;;;;;209.92;101.85;;;;;;;15.89;100.00;99974.64;1690515;85;21047;-77
2022/06/07 03:36:20;;;;;;;172.75;86.25;;;;;;;15.99;100.00;99972.35;1692724;85;21007;-76
2022/06/07 03:38:48;;;;;;;187.37;89.47;;;;;;;16.12;100.00;99976.97;1692166;85;21544;-77
2022/06/07 03:41:21;;;;;;;168.32;83.42;;;;;;;16.27;100.00;99981.70;1690400;85;21006;-76
2022/06/07 03:43:50;;;;;;;314.70;142.43;;;;;;;16.37;100.00;99978.54;1690362;85;21051;-77
2022/06/07 03:46:21;;;;;;;219.45;107.30;;;;;;;16.46;100.00;99982.73;1688005;84;21107;-77
2022/06/07 03:48:50;;;;;;;189.32;99.30;;;;;;;16.55;100.00;99983.89;1679310;85;21107;-77
2022/06/07 03:51:19;;;;;;;100.82;52.75;;;;;;;16.63;100.00;99989.97;1656668;87;21046;-76
2022/06/07 03:53:47;;;;;;;87.00;49.13;;;;;;;16.74;100.00;99992.58;1657073;87;21017;-76
2022/06/07 03:56:14;;;;;;;140.62;75.78;;;;;;;16.86;100.00;99995.53;1656739;87;21548;-76
2022/06/07 03:58:43;;;;;;;100.07;54.75;;;;;;;16.93;100.00;99996.36;1656841;85;20986;-77
2022/06/07 04:01:15;;;;;;;104.15;56.40;;;;;;;17.05;100.00;99998.73;1656540;87;21101;-77
2022/06/07 04:03:46;;;;;;;108.95;57.88;;;;;;;17.17;100.00;100009.82;1656738;86;21030;-77
2022/06/07 04:06:30;;;;;;;105.55;54.83;;;;;;;17.29;100.00;99999.61;1656929;87;21508;-77
2022/06/07 04:08:58;;;;;;;149.42;85.70;;;;;;;17.40;100.00;100007.95;1708272;84;21067;-77
2022/06/07 04:11:27;;;;;;;50.40;27.32;;;;;;;17.54;100.00;100010.09;1708364;84;21074;-76
2022/06/07 04:13:57;;;;;;;121.07;65.95;;;;;;;17.68;100.00;100011.41;1708394;84;21058;-77
2022/06/07 04:16:29;;;;;;;62.38;30.60;;;;;;;17.81;100.00;100012.19;1708180;84;21074;-78
2022/06/07 04:18:58;;;;;;;78.87;37.30;;;;;;;17.98;100.00;100019.36;1705119;84;21098;-77
2022/06/07 04:21:26;;;;;;;46.58;20.52;;;;;;;18.18;100.00;100017.02;1708039;84;21018;-79
2022/06/07 04:23:54;;;;;;;60.95;26.80;;;;;;;18.40;100.00;100022.42;1706877;84;21071;-78
2022/06/07 04:26:25;;;;;;;41.65;18.87;;;;;;;18.66;100.00;100027.38;1701157;84;21068;-76
2022/06/07 04:28:52;;;;;;;66.35;30.62;;;;;;;18.92;100.00;100032.31;1701338;84;21029;-77
2022/06/07 04:31:22;;;;;;;78.67;36.63;;;;;;;19.16;100.00;100040.20;1701172;84;21041;-79
2022/06/07 04:33:51;;;;;;;51.80;23.05;;;;;;;19.41;100.00;100044.77;1701645;84;21475;-77
2022/06/07 04:36:22;;;;;;;50.78;26.50;;;;;;;19.66;100.00;100043.29;1697819;84;21089;-78
2022/06/07 04:38:51;;;;;;;39.27;17.70;;;;;;;19.90;100.00;100046.98;1701468;84;20993;-78
2022/06/07 04:41:20;;;;;;;41.35;18.12;;;;;;;20.16;100.00;100049.89;1701234;84;21598;-77
2022/06/07 04:43:51;;;;;;;46.60;20.17;;;;;;;20.37;100.00;100049.89;1701505;84;21040;-78
2022/06/07 04:46:19;;;;;;;41.48;17.50;;;;;;;20.56;100.00;100056.14;1701505;84;21025;-77
2022/06/07 04:48:50;;;;;;;73.30;31.93;;;;;;;20.72;100.00;100053.27;1701484;84;20998;-76
2022/06/07 04:51:24;;;;;;;46.10;21.35;;;;;;;20.88;100.00;100057.22;1701413;84;21551;-77
2022/06/07 04:53:54;;;;;;;38.80;18.40;;;;;;;21.01;100.00;100059.71;1728888;83;21064;-77
2022/06/07 04:56:31;;;;;;;48.98;22.90;;;;;;;21.11;100.00;100061.88;1732628;83;21127;-78
2022/06/07 04:58:59;;;;;;;25.52;10.70;;;;;;;21.27;100.00;100065.80;1732597;83;21022;-78
2022/06/07 05:01:31;;;;;;;16.45;7.40;;;;;;;21.46;100.00;100072.55;1732064;83;21043;-77
2022/06/07 05:04:00;;;;;;;65.57;30.85;;;;;;;21.57;100.00;100073.08;1732537;83;21090;-74
2022/06/07 05:06:35;;;;;;;47.45;22.20;;;;;;;21.76;100.00;100073.72;1715823;83;21007;-73
2022/06/07 05:09:14;;;;;;;34.98;19.60;;;;;;;21.97;100.00;100073.07;1711694;83;21562;-73
2022/06/07 05:11:42;;;;;;;55.45;48.70;;;;;;;22.27;100.00;100076.11;1714161;84;21043;-75
2022/06/07 05:14:09;;;;;;;145.55;130.67;;;;;;;22.56;100.00;100087.94;1690688;84;21011;-77
2022/06/07 05:16:41;;;;;;;23.22;14.25;;;;;;;22.81;100.00;100082.56;1710870;84;21099;-77
2022/06/07 05:19:12;;;;;;;61.48;54.85;;;;;;;23.05;100.00;100087.36;1713907;84;21028;-78
2022/06/07 05:21:40;;;;;;;58.98;47.20;;;;;;;23.28;100.00;100088.25;1690123;84;21015;-74
2022/06/07 05:24:07;;;;;;;60.08;30.15;;;;;;;23.49;100.00;100090.75;1714105;84;21028;-72
2022/06/07 05:26:51;;;;;;;129.78;67.12;;;;;;;23.72;100.00;100096.56;1713693;82;21047;-76
2022/06/07 05:29:27;;;;;;;75.05;37.85;;;;;;;23.95;100.00;100094.11;1724736;83;21003;-74
2022/06/07 05:31:54;;;;;;;65.05;32.40;;;;;;;24.07;100.00;100098.94;1724202;82;20980;-79
2022/06/07 05:34:21;;;;;;;32.10;15.48;;;;;;;24.03;100.00;100099.73;1696493;83;21040;-76
2022/06/07 05:36:50;;;;;;;25.92;9.50;;;;;;;24.07;100.00;100095.36;1718845;82;20990;-76
2022/06/07 05:39:26;;;;;;;24.37;11.10;;;;;;;24.07;100.00;100099.50;1717589;83;20964;-74
2022/06/07 05:41:53;;;;;;;20.50;8.00;;;;;;;24.05;100.00;100099.75;1722581;82;20978;-75
2022/06/07 05:44:23;;;;;;;9.63;5.35;;;;;;;24.21;100.00;100095.79;1719722;83;21488;-76
2022/06/07 05:46:52;;;;;;;21.90;8.55;;;;;;;24.36;100.00;100104.77;1722102;82;21474;-76
2022/06/07 05:49:38;;;;;;;239.40;96.50;;;;;;;24.51;100.00;100102.16;1710546;83;21043;-78
2022/06/07 05:52:07;;;;;;;132.47;56.33;;;;;;;24.62;100.00;100101.18;1687590;85;21015;-73
2022/06/07 05:54:38;;;;;;;57.50;27.05;;;;;;;24.64;100.00;100104.51;1687151;85;21022;-75
2022/06/07 05:57:07;;;;;;;124.30;51.40;;;;;;;24.72;100.00;100103.73;1685566;85;21544;-78
2022/06/07 05:59:34;;;;;;;227.50;87.35;;;;;;;24.81;100.00;100105.77;1689174;85;21084;-81
2022/06/07 06:02:01;;;;;;;117.77;48.33;;;;;;;25.03;100.00;100104.83;1676927;85;21021;-77
2022/06/07 06:04:30;;;;;;;190.60;94.62;;;;;;;25.17;100.00;100103.26;1674804;85;20995;-76
2022/06/07 06:06:59;;;;;;;134.75;65.75;;;;;;;25.37;100.00;100099.84;1655966;85;21039;-79
2022/06/07 06:12:14;;;;;;;25.75;11.22;;;;;;;25.60;100.00;100094.95;1677217;86;21062;-74
2022/06/07 06:14:58;;;;;;;10.13;4.33;;;;;;;25.84;100.00;100098.67;1652431;87;21033;-76
2022/06/07 06:17:27;;;;;;;9.95;3.40;;;;;;;26.04;100.00;100102.91;1651977;87;21040;-75
2022/06/07 06:19:56;;;;;;;15.32;3.95;;;;;;;26.21;100.00;100098.53;1652318;87;21526;-78
2022/06/07 06:22:23;;;;;;;10.05;3.70;;;;;;;26.39;100.00;100097.17;1676561;86;21013;-76
2022/06/07 06:24:52;;;;;;;13.95;6.05;;;;;;;26.61;100.00;100090.00;1651920;86;21064;-76
2022/06/07 06:27:20;;;;;;;17.30;7.03;;;;;;;26.88;100.00;100085.59;1676746;85;21036;-76
2022/06/07 06:29:47;;;;;;;18.02;5.58;;;;;;;27.13;94.64;100092.75;1652415;86;21069;-75
2022/06/07 06:32:14;;;;;;;63.05;32.63;;;;;;;27.12;96.18;100097.48;1676553;86;21135;-73
2022/06/07 06:34:43;;;;;;;27.73;9.48;;;;;;;27.28;93.14;100089.98;1652256;86;21109;-74
2022/06/07 06:37:10;;;;;;;133.43;65.10;;;;;;;27.27;91.32;100096.66;1678958;85;21060;-76
2022/06/07 06:39:40;;;;;;;59.25;31.45;;;;;;;27.21;91.19;100091.63;1642380;86;21022;-78
2022/06/07 06:42:09;;;;;;;39.58;20.50;;;;;;;27.17;90.86;100098.86;1636421;88;21078;-75
2022/06/07 06:44:41;;;;;;;17.55;6.28;;;;;;;27.17;84.69;100094.70;1635637;88;21082;-77
2022/06/07 06:47:11;;;;;;;104.23;41.00;;;;;;;27.23;89.22;100096.37;1638562;87;21080;-77
2022/06/07 06:49:41;;;;;;;26.17;8.80;;;;;;;27.31;87.75;100096.94;1656750;86;21524;-77
2022/06/07 06:52:10;;;;;;;8.50;3.75;;;;;;;27.37;78.15;100100.78;1656792;86;21010;-73
2022/06/07 06:54:38;;;;;;;13.18;4.10;;;;;;;27.25;76.35;100096.91;1657590;85;21038;-78
2022/06/07 06:57:08;;;;;;;6.42;3.50;;;;;;;27.10;78.28;100096.93;1640402;86;21167;-75
2022/06/07 06:59:36;;;;;;;34.98;12.55;;;;;;;27.10;81.04;100096.93;1661518;85;21063;-77
2022/06/07 07:02:04;;;;;;;32.70;15.45;;;;;;;27.18;79.91;100095.52;1652901;87;21114;-77
2022/06/07 07:04:40;;;;;;;44.38;22.87;;;;;;;27.13;73.84;100099.69;1652562;87;21561;-79
2022/06/07 07:07:07;;;;;;;18.90;6.30;;;;;;;26.93;75.29;100086.68;1651420;87;21041;-79
2022/06/07 07:09:35;;;;;;;19.05;4.92;;;;;;;26.99;75.98;100092.52;1665200;86;21165;-79
2022/06/07 07:12:05;;;;;;;43.87;23.02;;;;;;;27.15;79.31;100091.37;1667404;86;21566;-81
2022/06/07 07:14:50;;;;;;;106.72;67.47;;;;;;;27.27;74.64;100089.16;1719228;83;21045;-78
2022/06/07 07:17:20;;;;;;;68.57;38.60;;;;;;;27.25;70.46;100094.14;1719013;83;21045;-77
2022/06/07 07:19:49;;;;;;;37.33;20.97;;;;;;;27.15;70.69;100095.53;1684308;83;21045;-74
2022/06/07 07:22:20;;;;;;;172.28;90.87;;;;;;;27.27;75.87;100099.44;1718911;83;21574;-76
2022/06/07 07:24:47;;;;;;;129.90;68.33;;;;;;;27.46;66.15;100097.72;1719979;83;21026;-78
2022/06/07 07:27:16;;;;;;;33.53;16.50;;;;;;;27.33;68.15;100092.75;1720342;83;21030;-84
2022/06/07 07:29:45;;;;;;;86.95;42.67;;;;;;;27.36;68.63;100095.53;1719725;83;21085;-76
2022/06/07 07:32:13;;;;;;;41.55;20.20;;;;;;;27.43;66.94;100100.23;1719650;83;21500;-73
2022/06/07 07:34:42;;;;;;;21.27;7.30;;;;;;;27.39;66.55;100101.89;1702301;84;21108;-74
2022/06/07 07:37:10;;;;;;;18.27;6.75;;;;;;;27.40;73.34;100095.23;1702654;83;21526;-78
2022/06/07 07:39:38;;;;;;;95.20;58.87;;;;;;;27.74;74.59;100098.16;1703045;84;21023;-75
2022/06/07 07:42:07;;;;;;;41.42;25.10;;;;;;;28.12;70.17;100103.28;1705235;83;21039;-72
2022/06/07 07:44:38;;;;;;;19.12;6.80;;;;;;;28.21;62.32;100098.23;1704962;82;21062;-76
2022/06/07 07:47:06;;;;;;;12.20;8.20;;;;;;;28.25;63.36;100097.10;1699915;84;21101;-80
2022/06/07 07:49:35;;;;;;;44.95;24.82;;;;;;;28.53;68.21;100096.91;1693352;85;21113;-82
2022/06/07 07:52:04;;;;;;;13.08;5.35;;;;;;;28.67;59.64;100101.83;1692914;85;21073;-74
2022/06/07 07:54:33;;;;;;;8.80;4.20;;;;;;;28.51;57.59;100098.34;1692189;85;21030;-75
2022/06/07 07:57:05;;;;;;;34.50;13.53;;;;;;;28.55;60.83;100089.70;1692034;85;21066;-78
2022/06/07 07:59:33;;;;;;;10.10;3.92;;;;;;;28.80;60.89;100087.27;1692557;85;21049;-77
2022/06/07 08:02:03;;;;;;;26.80;5.42;;;;;;;29.10;63.30;100083.94;1692340;85;21030;-81
2022/06/07 08:04:29;;;;;;;11.97;4.65;;;;;;;29.41;63.91;100083.08;1691724;85;21121;-73
2022/06/07 08:06:57;;;;;;;9.30;4.00;;;;;;;29.77;60.10;100079.88;1692314;85;21025;-75
2022/06/07 08:09:26;;;;;;;16.75;6.95;;;;;;;30.07;60.73;100075.03;1684531;84;21067;-76
2022/06/07 08:11:55;;;;;;;17.82;7.30;;;;;;;30.35;59.07;100073.25;1679213;85;21070;-79
2022/06/07 08:14:23;;;;;;;20.37;11.70;;;;;;;30.20;51.75;100076.23;1681974;85;21046;-72
2022/06/07 08:25:10;;;;;;;17.87;7.35;;;;;;;29.68;55.32;100073.29;1705449;82;21022;-76
2022/06/07 08:27:39;;;;;;;28.05;11.97;;;;;;;29.75;58.45;100066.81;1713987;84;21035;-78
2022/06/07 08:30:08;;;;;;;17.60;5.67;;;;;;;29.88;57.97;100066.64;1714279;84;21013;-76
2022/06/07 08:32:36;;;;;;;22.55;4.20;;;;;;;29.99;58.08;100072.33;1713904;84;20979;-78
2022/06/07 08:37:49;;;;;;;15.53;3.77;;;;;;;29.97;54.05;100064.02;1707054;84;20965;-76
2022/06/07 08:40:21;;;;;;;90.65;79.50;;;;;;;29.76;56.17;100064.28;1691252;84;20989;-75
2022/06/07 08:42:51;;;;;;;18.48;9.85;;;;;;;29.80;61.33;100061.72;1686506;85;21078;-78
2022/06/07 08:45:34;;;;;;;6.55;3.70;;;;;;;29.99;59.79;100058.39;1686700;85;21548;-79
2022/06/07 08:48:06;;;;;;;30.32;10.03;;;;;;;30.10;58.96;100057.13;1686727;85;21143;-75
2022/06/07 08:50:40;;;;;;;14.93;5.97;;;;;;;30.21;56.94;100052.23;1684889;85;21010;-75
2022/06/07 08:53:20;;;;;;;6.85;2.60;;;;;;;30.34;59.65;100042.29;1663205;85;21016;-73
2022/06/07 08:55:53;;;;;;;13.28;5.97;;;;;;;30.59;58.67;100043.01;1684917;85;21093;-75
2022/06/07 08:58:25;;;;;;;25.15;19.48;;;;;;;30.80;58.68;100037.33;1685301;85;21066;-77
2022/06/07 09:00:57;;;;;;;20.03;13.13;;;;;;;30.92;55.78;100038.27;1685409;85;21971;-76
2022/06/07 09:03:38;;;;;;;41.08;19.85;;;;;;;31.06;57.14;100035.50;1685127;85;21089;-73
2022/06/07 09:06:09;;;;;;;17.87;6.60;;;;;;;31.05;52.57;100038.02;1685232;85;21110;-75
2022/06/07 09:08:43;;;;;;;8.18;3.15;;;;;;;30.70;54.17;100029.12;1657057;86;21036;-75
2022/06/07 09:14:05;;;;;;;30.60;16.85;;;;;;;31.02;53.79;100040.02;1672024;85;21038;-78
2022/06/07 09:16:42;;;;;;;30.43;13.53;;;;;;;31.19;51.22;100033.85;1676265;85;21033;-76
2022/06/07 09:19:21;;;;;;;38.63;16.25;;;;;;;30.90;48.64;100034.93;1674531;85;20987;-77
2022/06/07 09:21:49;;;;;;;18.30;6.65;;;;;;;30.58;50.23;100031.03;1679434;85;21073;-75
2022/06/07 09:24:40;;;;;;;20.45;9.45;;;;;;;30.15;53.01;100031.69;1659032;85;21015;-76
2022/06/07 09:27:19;;;;;;;27.33;20.57;;;;;;;30.23;54.94;100033.23;1651685;86;21027;-76
2022/06/07 09:29:56;;;;;;;60.85;32.85;;;;;;;30.48;53.94;100029.80;1662032;86;21064;-74
2022/06/07 09:32:27;;;;;;;20.57;8.25;;;;;;;30.65;53.34;100022.23;1617465;88;21477;-75
2022/06/07 09:35:03;;;;;;;14.03;4.30;;;;;;;30.82;54.99;100016.91;1605012;88;20991;-72
2022/06/07 09:37:50;;;;;;;3.92;2.90;;;;;;;31.09;56.16;100020.08;1599559;90;21039;-76
2022/06/07 09:40:32;;;;;;;14.33;5.10;;;;;;;31.40;54.39;100021.70;1604990;88;21024;-79
2022/06/07 09:43:15;;;;;;;14.78;6.30;;;;;;;31.59;52.33;100014.06;1606304;89;21151;-77
2022/06/07 09:45:51;;;;;;;;;;;;;;;31.69;52.14;100019.16;1596037;88;21524;-79
2022/06/07 09:48:42;;;;;;;65.47;55.65;;;;;;;31.49;49.01;100019.86;1627796;88;20508;-74
2022/06/07 09:51:23;;;;;;;7.65;3.40;;;;;;;31.34;51.58;100015.40;1627845;88;21575;-76
2022/06/07 09:54:03;;;;;;;7.17;3.12;;;;;;;31.30;47.35;100017.72;1625524;88;21625;-74
2022/06/07 09:56:58;;;;;;;30.88;15.30;;;;;;;31.31;48.68;100016.02;1627889;88;21023;-73
2022/06/07 09:59:42;;;;;;;238.68;50.78;;;;;;;31.40;50.57;100009.13;1627507;88;21043;-73
2022/06/07 10:02:36;;;;;;;27.35;11.80;;;;;;;31.66;50.20;100012.79;1627606;88;21015;-74
2022/06/07 10:05:29;;;;;;;55.03;48.90;;;;;;;31.72;47.57;100011.55;1627704;88;21084;-77
2022/06/07 10:08:51;;;;;;;146.28;71.72;;;;;;;31.47;45.56;100019.89;1627935;88;21043;-76
2022/06/07 10:11:48;;;;;;;13.85;6.08;;;;;;;31.14;46.16;100020.80;1627633;88;21094;-76
2022/06/07 10:14:39;;;;;;;132.25;81.50;;;;;;;30.93;48.09;100023.16;1628571;86;21475;-78
2022/06/07 10:18:04;;;;;;;22.50;11.68;;;;;;;30.85;49.21;100019.67;1659971;86;21015;-77
2022/06/07 10:21:01;;;;;;;9.80;3.70;;;;;;;30.97;49.85;100020.58;1659208;86;21202;-75
2022/06/07 10:24:07;;;;;;;12.40;3.45;;;;;;;31.20;51.65;100007.56;1618045;86;21087;-73
2022/06/07 10:26:58;;;;;;;11.50;4.28;;;;;;;31.52;53.29;100001.62;1629511;88;21060;-73
2022/06/07 10:30:04;;;;;;;45.00;39.15;;;;;;;31.95;48.87;100005.44;1666404;85;21054;-75
2022/06/07 10:33:10;;;;;;;245.42;123.20;;;;;;;32.06;48.99;100013.05;1677579;85;21602;-75
2022/06/07 10:36:07;;;;;;;57.48;30.57;;;;;;;32.25;47.36;100001.69;1677104;85;21063;-74
2022/06/07 10:39:22;;;;;;;58.63;28.92;;;;;;;32.12;46.33;100004.77;1654644;87;21817;-76
2022/06/07 10:42:11;;;;;;;74.90;34.83;;;;;;;31.92;47.54;100010.25;1654611;87;21064;-76
2022/06/07 10:44:46;;;;;;;20.55;8.63;;;;;;;32.10;50.02;100003.72;1599650;90;21110;-76
2022/06/07 10:47:36;;;;;;;192.92;88.45;;;;;;;32.34;50.43;100003.39;1600246;90;21067;-77
2022/06/07 10:50:20;;;;;;;166.37;83.35;;;;;;;32.36;44.40;100003.89;1579899;89;21631;-75
2022/06/07 10:53:00;;;;;;;42.30;20.68;;;;;;;32.20;46.12;100000.41;1575748;89;21576;-73
2022/06/07 10:55:35;;;;;;;66.07;34.35;;;;;;;32.10;45.34;100000.07;1557860;89;21069;-79
2022/06/07 10:58:43;;;;;;;47.25;27.25;;;;;;;31.86;43.12;99993.36;1576683;89;21066;-75
2022/06/07 11:01:29;;;;;;;11.50;4.85;;;;;;;31.57;42.99;99998.73;1555761;91;21549;-73
2022/06/07 11:10:15;;;;;;;9.23;2.70;;;;;;;31.42;47.41;99983.92;1457225;98;21534;-77
2022/06/07 11:13:01;;;;;;;10.03;3.92;;;;;;;31.46;46.24;99982.72;1464038;98;21094;-79
2022/06/07 11:15:36;;;;;;;7.40;2.33;;;;;;;31.40;46.93;99976.42;1436356;99;21095;-76
2022/06/07 11:18:25;;;;;;;14.78;5.65;;;;;;;31.56;49.93;99971.94;1452735;99;21086;-77
2022/06/07 11:21:08;;;;;;;15.25;3.87;;;;;;;31.89;47.14;99976.78;1439817;99;21110;-73
2022/06/07 11:26:52;;;;;;;42.45;20.77;;;;;;;32.00;45.27;99959.19;1426188;100;21139;-74
2022/06/07 11:29:24;;;;;;;31.42;15.45;;;;;;;32.08;45.21;99966.01;1427248;99;21114;-73
2022/06/07 11:31:52;;;;;;;58.58;29.30;;;;;;;31.87;43.93;99962.27;1453588;97;21142;-73
2022/06/07 11:34:36;;;;;;;9.33;4.17;;;;;;;31.52;43.12;99961.96;1483959;97;21137;-73
2022/06/07 11:37:19;;;;;;;15.03;4.58;;;;;;;31.17;43.01;99965.73;1483689;97;21184;-74
2022/06/07 11:39:56;;;;;;;11.40;5.00;;;;;;;30.98;44.87;99954.67;1483938;97;21094;-75
2022/06/07 11:42:33;;;;;;;21.10;3.95;;;;;;;31.17;48.08;99948.16;1462693;98;21121;-74
2022/06/07 11:45:20;;;;;;;10.90;2.92;;;;;;;31.39;46.71;99946.86;1455933;97;21108;-76
2022/06/07 11:47:55;;;;;;;9.28;3.20;;;;;;;31.53;45.31;99946.02;1449447;99;21112;-72
2022/06/07 11:50:57;;;;;;;10.23;4.17;;;;;;;31.66;47.43;99947.12;1447008;99;21167;-73
2022/06/07 11:53:31;;;;;;;166.28;90.77;;;;;;;31.86;44.50;99949.45;1449246;99;21105;-74
2022/06/07 11:56:26;;;;;;;73.50;41.88;;;;;;;31.86;42.81;99936.86;1449731;99;21115;-72
2022/06/07 11:59:04;;;;;;;61.92;34.23;;;;;;;31.73;46.08;99940.52;1459516;94;21123;-72
2022/06/07 12:01:35;;;;;;;66.97;37.78;;;;;;;31.94;47.22;99940.31;1491585;96;21100;-72
2022/06/07 12:04:26;;;;;;;;;;;;;;;32.25;46.00;99942.95;1493562;96;21279;-73
2022/06/07 12:06:54;;;;;;;6.58;2.80;;;;;;;32.43;44.88;99939.09;1496404;96;20160;-74
2022/06/07 12:09:21;;;;;;;6.35;2.77;;;;;;;32.34;44.04;99931.23;1522834;92;21037;-74
2022/06/07 12:11:48;;;;;;;11.68;3.27;;;;;;;32.34;43.86;99929.83;1542323;92;21118;-73